createdAt,value
2022-10-15T00:01:30.091Z,12.70
2022-10-15T00:03:58.099Z,12.70
2022-10-15T00:06:26.332Z,12.70
2022-10-15T00:08:55.689Z,12.70
2022-10-15T00:11:25.926Z,12.70
2022-10-15T00:13:54.596Z,12.60
2022-10-15T00:16:24.628Z,12.60
2022-10-15T00:18:53.753Z,12.60
2022-10-15T00:21:22.588Z,12.60
2022-10-15T00:23:50.991Z,12.60
2022-10-15T00:26:22.004Z,12.70
2022-10-15T00:28:51.711Z,12.60
2022-10-15T00:31:26.388Z,12.60
2022-10-15T00:33:55.709Z,12.60
2022-10-15T00:36:26.764Z,12.70
2022-10-15T00:38:54.866Z,12.70
2022-10-15T00:41:28.258Z,12.70
2022-10-15T00:43:58.470Z,12.70
2022-10-15T00:46:31.201Z,12.60
2022-10-15T00:51:40.887Z,12.60
2022-10-15T00:54:09.839Z,12.60
2022-10-15T00:56:41.154Z,12.50
2022-10-15T00:59:11.129Z,12.50
2022-10-15T01:01:39.568Z,12.60
2022-10-15T01:04:08.810Z,12.50
2022-10-15T01:06:37.617Z,12.50
2022-10-15T01:09:06.003Z,12.50
2022-10-15T01:11:43.415Z,12.50
2022-10-15T01:14:32.753Z,12.50
2022-10-15T01:17:06.185Z,12.50
2022-10-15T01:19:50.724Z,12.50
2022-10-15T01:22:28.526Z,12.50
2022-10-15T01:25:09.597Z,12.50
2022-10-15T01:27:43.204Z,12.40
2022-10-15T01:30:24.718Z,12.50
2022-10-15T01:33:30.297Z,12.50
2022-10-15T01:36:07.193Z,12.60
2022-10-15T01:38:46.433Z,12.60
2022-10-15T01:41:19.473Z,12.50
2022-10-15T01:43:56.475Z,12.60
2022-10-15T01:46:37.779Z,12.60
2022-10-15T01:49:09.758Z,12.60
2022-10-15T01:51:40.428Z,12.70
2022-10-15T01:54:12.929Z,12.70
2022-10-15T01:56:41.815Z,12.70
2022-10-15T01:59:11.880Z,12.70
2022-10-15T02:04:22.664Z,12.80
2022-10-15T02:06:58.688Z,12.70
2022-10-15T02:09:35.055Z,12.80
2022-10-15T02:12:13.848Z,12.80
2022-10-15T02:14:52.316Z,12.80
2022-10-15T02:17:29.489Z,12.80
2022-10-15T02:20:03.201Z,12.80
2022-10-15T02:22:36.420Z,12.80
2022-10-15T02:25:07.867Z,12.80
2022-10-15T02:27:37.990Z,12.80
2022-10-15T02:30:09.579Z,12.80
2022-10-15T02:32:41.345Z,12.80
2022-10-15T02:35:11.621Z,12.80
2022-10-15T02:37:44.428Z,12.80
2022-10-15T02:40:13.572Z,12.70
2022-10-15T02:42:41.576Z,12.70
2022-10-15T02:45:10.489Z,12.70
2022-10-15T02:47:39.797Z,12.70
2022-10-15T02:50:08.164Z,12.70
2022-10-15T02:52:36.131Z,12.70
2022-10-15T02:55:04.266Z,12.80
2022-10-15T02:57:32.270Z,12.70
2022-10-15T03:00:01.909Z,12.70
2022-10-15T03:02:30.288Z,12.70
2022-10-15T03:05:00.161Z,12.80
2022-10-15T03:07:28.248Z,12.80
2022-10-15T03:09:56.176Z,12.80
2022-10-15T03:12:26.001Z,12.70
2022-10-15T03:14:55.123Z,12.80
2022-10-15T03:17:23.771Z,12.80
2022-10-15T03:19:52.246Z,12.80
2022-10-15T03:22:21.599Z,12.80
2022-10-15T03:24:54.507Z,12.80
2022-10-15T03:27:28.489Z,12.80
2022-10-15T03:29:56.789Z,12.80
2022-10-15T03:32:27.101Z,12.90
2022-10-15T03:34:55.175Z,12.90
2022-10-15T03:37:25.469Z,12.90
2022-10-15T03:39:54.045Z,12.90
2022-10-15T03:42:22.572Z,12.90
2022-10-15T03:44:51.714Z,12.90
2022-10-15T03:47:20.973Z,13.00
2022-10-15T03:49:50.559Z,12.90
2022-10-15T03:52:18.937Z,12.90
2022-10-15T03:54:49.944Z,12.90
2022-10-15T03:57:21.002Z,12.90
2022-10-15T04:00:01.077Z,12.90
2022-10-15T04:02:40.316Z,12.90
2022-10-15T04:05:18.816Z,12.90
2022-10-15T04:07:52.796Z,12.90
2022-10-15T04:10:23.843Z,12.90
2022-10-15T04:12:51.983Z,13.00
2022-10-15T04:15:20.535Z,13.00
2022-10-15T04:17:56.574Z,13.00
2022-10-15T04:20:27.221Z,13.00
2022-10-15T04:22:55.779Z,13.00
2022-10-15T04:25:25.234Z,13.10
2022-10-15T04:27:54.362Z,13.10
2022-10-15T04:30:23.924Z,13.10
2022-10-15T04:32:59.101Z,13.20
2022-10-15T04:35:27.250Z,13.20
2022-10-15T04:38:05.894Z,13.20
2022-10-15T04:41:04.385Z,13.20
2022-10-15T04:43:52.944Z,13.30
2022-10-15T04:46:22.305Z,13.30
2022-10-15T04:48:52.680Z,13.30
2022-10-15T04:51:22.170Z,13.40
2022-10-15T04:54:13.615Z,13.40
2022-10-15T04:56:57.944Z,13.40
2022-10-15T04:59:26.364Z,13.40
2022-10-15T05:02:17.223Z,13.40
2022-10-15T05:04:49.553Z,13.50
2022-10-15T05:07:17.542Z,13.50
2022-10-15T05:09:46.670Z,13.50
2022-10-15T05:12:16.588Z,13.60
2022-10-15T05:14:44.641Z,13.60
2022-10-15T05:17:19.839Z,13.70
2022-10-15T05:19:49.368Z,13.70
2022-10-15T05:22:22.014Z,13.70
2022-10-15T05:25:01.110Z,13.70
2022-10-15T05:27:35.300Z,13.80
2022-10-15T05:30:06.137Z,13.90
2022-10-15T05:32:39.612Z,13.90
2022-10-15T05:35:11.917Z,13.90
2022-10-15T05:37:53.884Z,13.90
2022-10-15T05:40:26.326Z,14.00
2022-10-15T05:43:08.623Z,14.00
2022-10-15T05:45:36.570Z,14.00
2022-10-15T05:48:06.880Z,14.00
2022-10-15T05:50:35.810Z,14.10
2022-10-15T05:53:06.097Z,14.10
2022-10-15T05:55:34.061Z,14.10
2022-10-15T05:58:03.904Z,14.10
2022-10-15T06:00:33.901Z,14.20
2022-10-15T06:03:01.881Z,14.20
2022-10-15T06:05:29.827Z,14.20
2022-10-15T06:07:58.287Z,14.30
2022-10-15T06:10:28.371Z,14.20
2022-10-15T06:12:56.413Z,14.30
2022-10-15T06:15:24.334Z,14.30
2022-10-15T06:17:55.068Z,14.40
2022-10-15T06:20:23.024Z,14.40
2022-10-15T06:22:51.027Z,14.40
2022-10-15T06:25:18.981Z,14.40
2022-10-15T06:27:47.001Z,14.40
2022-10-15T06:30:14.947Z,14.40
2022-10-15T06:32:48.728Z,14.50
2022-10-15T06:35:19.671Z,14.40
2022-10-15T06:37:47.826Z,14.40
2022-10-15T06:40:16.432Z,14.40
2022-10-15T06:42:45.160Z,14.30
2022-10-15T06:45:15.779Z,14.40
2022-10-15T06:47:46.260Z,14.40
2022-10-15T06:50:14.237Z,14.50
2022-10-15T06:52:44.521Z,14.50
2022-10-15T06:55:12.508Z,14.50
2022-10-15T06:57:40.436Z,14.60
2022-10-15T07:00:09.382Z,14.60
2022-10-15T07:02:37.450Z,14.70
2022-10-15T07:05:06.024Z,14.70
2022-10-15T07:07:34.416Z,14.80
2022-10-15T07:10:03.806Z,14.80
2022-10-15T07:12:34.285Z,14.90
2022-10-15T07:15:02.221Z,14.90
2022-10-15T07:17:30.802Z,15.10
2022-10-15T07:19:58.709Z,15.20
2022-10-15T07:22:26.930Z,15.30
2022-10-15T07:24:55.097Z,15.30
2022-10-15T07:27:24.671Z,15.30
2022-10-15T07:29:55.397Z,15.30
2022-10-15T07:32:23.465Z,15.20
2022-10-15T07:34:51.614Z,15.10
2022-10-15T07:37:20.832Z,15.10
2022-10-15T07:39:48.733Z,15.20
2022-10-15T07:42:16.721Z,15.30
2022-10-15T07:44:45.995Z,15.30
2022-10-15T07:47:15.314Z,15.30
2022-10-15T07:49:43.349Z,15.30
2022-10-15T07:52:12.675Z,15.30
2022-10-15T07:54:40.689Z,15.20
2022-10-15T07:57:09.122Z,15.20
2022-10-15T07:59:37.208Z,15.10
2022-10-15T08:02:06.547Z,15.20
2022-10-15T08:04:35.466Z,15.10
2022-10-15T08:07:05.808Z,15.20
2022-10-15T08:09:36.237Z,15.40
2022-10-15T08:12:05.058Z,15.30
2022-10-15T08:14:33.250Z,15.50
2022-10-15T08:17:02.080Z,15.50
2022-10-15T08:19:31.438Z,15.40
2022-10-15T08:21:59.726Z,15.40
2022-10-15T08:24:30.124Z,15.40
2022-10-15T08:26:59.199Z,15.50
2022-10-15T08:29:27.262Z,15.60
2022-10-15T08:31:55.215Z,15.60
2022-10-15T08:34:24.873Z,15.60
2022-10-15T08:36:54.148Z,15.60
2022-10-15T08:39:22.087Z,15.40
2022-10-15T08:41:53.825Z,15.40
2022-10-15T08:44:27.047Z,15.40
2022-10-15T08:47:00.126Z,15.30
2022-10-15T08:49:38.437Z,15.40
2022-10-15T08:52:17.891Z,15.30
2022-10-15T08:54:46.119Z,15.30
2022-10-15T08:57:23.315Z,15.40
2022-10-15T08:59:58.093Z,15.50
2022-10-15T09:02:30.665Z,15.60
2022-10-15T09:05:10.216Z,15.70
2022-10-15T09:07:45.570Z,15.90
2022-10-15T09:10:18.634Z,15.90
2022-10-15T09:12:54.377Z,15.80
2022-10-15T09:15:27.025Z,16.00
2022-10-15T09:17:56.405Z,16.10
2022-10-15T09:20:32.814Z,16.30
2022-10-15T09:23:02.656Z,16.60
2022-10-15T09:25:36.007Z,17.00
2022-10-15T09:28:09.687Z,17.50
2022-10-15T09:30:43.571Z,17.80
2022-10-15T09:33:17.659Z,18.10
2022-10-15T09:35:51.066Z,18.40
2022-10-15T09:38:25.536Z,18.50
2022-10-15T09:41:05.117Z,18.90
2022-10-15T09:43:38.384Z,18.90
2022-10-15T09:46:06.957Z,19.10
2022-10-15T09:48:42.721Z,19.00
2022-10-15T09:51:19.937Z,19.00
2022-10-15T09:53:57.119Z,18.70
2022-10-15T09:56:30.113Z,18.70
2022-10-15T09:59:00.151Z,18.60
2022-10-15T10:01:29.597Z,18.80
2022-10-15T10:04:12.428Z,18.80
2022-10-15T10:06:49.201Z,18.70
2022-10-15T10:09:21.883Z,18.80
2022-10-15T10:11:52.999Z,18.80
2022-10-15T10:14:26.971Z,19.10
2022-10-15T10:17:17.552Z,19.40
2022-10-15T10:19:47.460Z,19.30
2022-10-15T10:22:18.041Z,19.50
2022-10-15T10:24:48.389Z,19.50
2022-10-15T10:27:23.042Z,19.60
2022-10-15T10:29:56.800Z,19.80
2022-10-15T10:32:29.186Z,19.80
2022-10-15T10:34:57.880Z,19.30
2022-10-15T10:37:26.747Z,19.50
2022-10-15T10:39:59.367Z,19.40
2022-10-15T10:42:33.797Z,19.50
2022-10-15T10:45:19.978Z,20.30
2022-10-15T10:47:48.154Z,20.70
2022-10-15T10:50:32.090Z,21.40
2022-10-15T10:53:11.292Z,22.50
2022-10-15T10:55:46.450Z,23.50
2022-10-15T10:58:22.166Z,22.70
2022-10-15T11:00:55.478Z,22.90
2022-10-15T11:03:32.557Z,22.80
2022-10-15T11:06:23.422Z,22.80
2022-10-15T11:09:03.984Z,23.10
2022-10-15T11:11:42.633Z,23.40
2022-10-15T11:14:21.598Z,23.00
2022-10-15T11:16:55.631Z,23.10
2022-10-15T11:22:41.506Z,22.00
2022-10-15T11:25:18.533Z,21.80
2022-10-15T11:28:01.282Z,22.10
2022-10-15T11:30:40.730Z,21.90
2022-10-15T11:33:27.430Z,21.80
2022-10-15T11:36:11.712Z,21.70
2022-10-15T11:38:47.055Z,21.70
2022-10-15T11:41:35.484Z,21.70
2022-10-15T11:44:22.327Z,21.90
2022-10-15T11:47:00.569Z,22.00
2022-10-15T11:49:41.157Z,22.30
2022-10-15T11:52:30.880Z,22.40
2022-10-15T11:55:05.041Z,22.20
2022-10-15T11:57:35.866Z,22.20
2022-10-15T12:00:16.741Z,21.90
2022-10-15T12:02:46.417Z,21.90
2022-10-15T12:05:19.583Z,21.70
2022-10-15T12:07:49.189Z,21.70
2022-10-15T12:10:36.384Z,22.00
2022-10-15T12:13:09.994Z,21.90
2022-10-15T12:15:46.263Z,21.50
2022-10-15T12:18:22.224Z,21.20
2022-10-15T12:20:51.176Z,21.10
2022-10-15T12:23:26.173Z,21.00
2022-10-15T12:25:55.452Z,21.00
2022-10-15T12:28:25.868Z,21.00
2022-10-15T12:31:03.151Z,20.90
2022-10-15T12:33:35.590Z,20.80
2022-10-15T12:36:09.430Z,20.70
2022-10-15T12:38:40.820Z,20.70
2022-10-15T12:41:10.648Z,20.80
2022-10-15T12:43:42.067Z,20.80
2022-10-15T12:46:13.125Z,21.00
2022-10-15T12:48:43.773Z,21.40
2022-10-15T12:51:38.885Z,21.40
2022-10-15T12:54:41.773Z,21.10
2022-10-15T12:57:47.448Z,20.60
2022-10-15T13:00:45.603Z,20.70
2022-10-15T13:03:34.567Z,20.50
2022-10-15T13:06:35.027Z,20.50
2022-10-15T13:09:17.075Z,20.60
2022-10-15T13:11:48.806Z,20.70
2022-10-15T13:14:29.930Z,20.70
2022-10-15T13:17:03.370Z,20.80
2022-10-15T13:19:38.925Z,21.00
2022-10-15T13:22:20.800Z,21.00
2022-10-15T13:24:48.985Z,20.90
2022-10-15T13:27:23.355Z,20.80
2022-10-15T13:29:58.406Z,20.80
2022-10-15T13:32:28.279Z,20.80
2022-10-15T13:34:58.429Z,20.80
2022-10-15T13:37:31.986Z,20.80
2022-10-15T13:40:03.238Z,20.70
2022-10-15T13:42:34.783Z,20.90
2022-10-15T13:45:04.603Z,20.70
2022-10-15T13:47:35.323Z,20.70
2022-10-15T13:50:15.530Z,20.60
2022-10-15T13:52:45.489Z,20.60
2022-10-15T13:55:23.624Z,20.40
2022-10-15T13:57:56.796Z,20.50
2022-10-15T14:00:28.139Z,20.50
2022-10-15T14:03:16.668Z,20.30
2022-10-15T14:05:46.979Z,20.50
2022-10-15T14:08:23.599Z,20.60
2022-10-15T14:10:53.110Z,20.80
2022-10-15T14:13:21.385Z,20.80
2022-10-15T14:16:15.789Z,20.60
2022-10-15T14:18:49.017Z,20.40
2022-10-15T14:21:20.641Z,20.20
2022-10-15T14:23:50.659Z,20.10
2022-10-15T14:26:25.129Z,20.10
2022-10-15T14:28:55.810Z,20.20
2022-10-15T14:31:31.813Z,20.30
2022-10-15T14:33:59.907Z,20.30
2022-10-15T14:36:31.612Z,20.20
2022-10-15T14:39:27.584Z,20.30
2022-10-15T14:42:01.198Z,20.30
2022-10-15T14:44:42.691Z,20.30
2022-10-15T14:47:21.790Z,20.50
2022-10-15T14:49:51.550Z,20.30
2022-10-15T14:52:22.717Z,20.20
2022-10-15T14:55:02.321Z,20.00
2022-10-15T14:57:35.227Z,20.00
2022-10-15T15:00:05.251Z,19.80
2022-10-15T15:02:33.466Z,19.90
2022-10-15T15:05:15.987Z,19.90
2022-10-15T15:07:45.329Z,19.80
2022-10-15T15:10:13.318Z,19.80
2022-10-15T15:12:50.839Z,19.80
2022-10-15T15:15:21.015Z,19.90
2022-10-15T15:17:49.573Z,19.90
2022-10-15T15:20:20.121Z,19.80
2022-10-15T15:22:50.865Z,19.70
2022-10-15T15:25:21.034Z,19.50
2022-10-15T15:27:49.195Z,19.50
2022-10-15T15:30:19.930Z,19.30
2022-10-15T15:32:48.892Z,19.10
2022-10-15T15:35:40.346Z,18.80
2022-10-15T15:38:09.744Z,18.60
2022-10-15T15:40:37.690Z,18.60
2022-10-15T15:43:05.653Z,18.50
2022-10-15T15:45:33.701Z,18.50
2022-10-15T15:48:03.596Z,18.50
2022-10-15T15:50:31.759Z,18.50
2022-10-15T15:52:59.771Z,18.50
2022-10-15T15:55:30.177Z,18.50
2022-10-15T15:57:58.213Z,18.40
2022-10-15T16:00:26.182Z,18.30
2022-10-15T16:02:57.838Z,18.20
2022-10-15T16:05:26.605Z,18.10
2022-10-15T16:07:54.564Z,18.10
2022-10-15T16:10:22.762Z,18.10
2022-10-15T16:12:52.348Z,18.00
2022-10-15T16:15:20.329Z,18.00
2022-10-15T16:17:48.305Z,18.00
2022-10-15T16:20:16.330Z,18.00
2022-10-15T16:22:44.362Z,18.00
2022-10-15T16:25:12.485Z,17.90
2022-10-15T16:27:40.498Z,17.80
2022-10-15T16:30:10.919Z,17.60
2022-10-15T16:32:38.986Z,17.50
2022-10-15T16:35:07.924Z,17.50
2022-10-15T16:37:35.996Z,17.50
2022-10-15T16:40:04.037Z,17.40
2022-10-15T16:42:31.972Z,17.40
2022-10-15T16:45:00.528Z,17.40
2022-10-15T16:47:29.751Z,17.40
2022-10-15T16:49:57.714Z,17.20
2022-10-15T16:52:26.052Z,17.20
2022-10-15T16:54:54.157Z,17.10
2022-10-15T16:57:22.146Z,16.90
2022-10-15T16:59:51.745Z,16.80
2022-10-15T17:02:19.875Z,16.70
2022-10-15T17:04:49.277Z,16.50
2022-10-15T17:07:17.315Z,16.30
2022-10-15T17:12:16.180Z,16.30
2022-10-15T17:14:50.644Z,16.30
2022-10-15T17:17:18.682Z,16.30
2022-10-15T17:19:46.630Z,16.30
2022-10-15T17:22:16.087Z,16.30
2022-10-15T17:24:44.234Z,16.30
2022-10-15T17:27:12.539Z,16.30
2022-10-15T17:29:40.710Z,16.30
2022-10-15T17:32:08.765Z,16.30
2022-10-15T17:34:36.680Z,16.30
2022-10-15T17:37:04.682Z,16.40
2022-10-15T17:39:34.524Z,16.30
2022-10-15T17:42:02.541Z,16.30
2022-10-15T17:44:30.530Z,16.30
2022-10-15T17:46:58.510Z,16.30
2022-10-15T17:49:29.164Z,16.20
2022-10-15T17:51:57.236Z,16.20
2022-10-15T17:54:25.212Z,16.20
2022-10-15T17:56:56.838Z,16.00
2022-10-15T17:59:24.854Z,15.90
2022-10-15T18:01:58.317Z,15.80
2022-10-15T18:04:27.594Z,15.60
2022-10-15T18:06:55.739Z,15.60
2022-10-15T18:09:26.993Z,15.60
2022-10-15T18:12:01.709Z,15.60
2022-10-15T18:14:32.766Z,15.60
2022-10-15T18:17:00.872Z,15.50
2022-10-15T18:19:29.267Z,15.40
2022-10-15T18:21:57.521Z,15.40
2022-10-15T18:24:25.556Z,15.30
2022-10-15T18:26:54.363Z,15.30
2022-10-15T18:29:25.259Z,15.40
2022-10-15T18:31:57.323Z,15.40
2022-10-15T18:34:28.128Z,15.50
2022-10-15T18:36:56.097Z,15.40
2022-10-15T18:39:24.851Z,15.40
2022-10-15T18:41:52.821Z,15.40
2022-10-15T18:44:21.625Z,15.40
2022-10-15T18:46:51.867Z,15.40
2022-10-15T18:49:21.284Z,15.40
2022-10-15T18:51:51.798Z,15.40
2022-10-15T18:54:20.162Z,15.30
2022-10-15T18:56:48.606Z,15.30
2022-10-15T18:59:20.062Z,15.30
2022-10-15T19:01:51.182Z,15.30
2022-10-15T19:04:23.269Z,15.30
2022-10-15T19:06:53.329Z,15.40
2022-10-15T19:09:23.296Z,15.40
2022-10-15T19:11:53.544Z,15.40
2022-10-15T19:14:22.077Z,15.40
2022-10-15T19:16:51.590Z,15.40
2022-10-15T19:19:23.260Z,15.40
2022-10-15T19:21:52.467Z,15.50
2022-10-15T19:24:21.660Z,15.50
2022-10-15T19:26:50.906Z,15.40
2022-10-15T19:29:18.970Z,15.40
2022-10-15T19:31:49.423Z,15.40
2022-10-15T19:34:18.754Z,15.40
2022-10-15T19:36:50.541Z,15.40
2022-10-15T19:39:21.066Z,15.40
2022-10-15T19:41:49.865Z,15.30
2022-10-15T19:44:20.052Z,15.30
2022-10-15T19:46:48.360Z,15.30
2022-10-15T19:49:17.814Z,15.40
2022-10-15T19:51:48.016Z,15.40
2022-10-15T19:54:16.790Z,15.50
2022-10-15T19:56:44.832Z,15.50
2022-10-15T19:59:12.971Z,15.50
2022-10-15T20:01:41.028Z,15.50
2022-10-15T20:04:09.140Z,15.50
2022-10-15T20:06:39.641Z,15.50
2022-10-15T20:09:09.028Z,15.40
2022-10-15T20:11:37.769Z,15.40
2022-10-15T20:14:06.014Z,15.40
2022-10-15T20:16:34.002Z,15.40
2022-10-15T20:19:02.989Z,15.40
2022-10-15T20:21:31.488Z,15.40
2022-10-15T20:24:04.167Z,15.50
2022-10-15T20:26:34.233Z,15.40
2022-10-15T20:29:02.306Z,15.40
2022-10-15T20:31:33.039Z,15.30
2022-10-15T20:34:02.187Z,15.40
2022-10-15T20:36:30.609Z,15.30
2022-10-15T20:39:03.860Z,15.40
2022-10-15T20:41:31.842Z,15.20
2022-10-15T20:44:00.030Z,15.20
2022-10-15T20:46:33.495Z,15.20
2022-10-15T20:49:07.616Z,15.10
2022-10-15T20:51:40.678Z,15.10
2022-10-15T20:54:11.459Z,15.00
2022-10-15T20:56:39.604Z,14.90
2022-10-15T20:59:10.074Z,14.70
2022-10-15T21:01:43.454Z,14.70
2022-10-15T21:04:11.622Z,14.60
2022-10-15T21:06:40.840Z,14.60
2022-10-15T21:09:12.535Z,14.60
2022-10-15T21:11:41.848Z,14.60
2022-10-15T21:14:10.089Z,14.60
2022-10-15T21:16:38.103Z,14.60
2022-10-15T21:19:06.244Z,14.60
2022-10-15T21:21:34.269Z,14.70
2022-10-15T21:24:02.227Z,14.70
2022-10-15T21:26:31.577Z,14.60
2022-10-15T21:29:00.656Z,14.60
2022-10-15T21:31:29.248Z,14.60
2022-10-15T21:33:57.589Z,14.60
2022-10-15T21:36:27.343Z,14.50
2022-10-15T21:38:57.473Z,14.50
2022-10-15T21:41:26.350Z,14.40
2022-10-15T21:43:55.766Z,14.50
2022-10-15T21:46:24.187Z,14.50
2022-10-15T21:48:53.377Z,14.50
2022-10-15T21:51:23.888Z,14.40
2022-10-15T21:53:52.327Z,14.40
2022-10-15T21:56:20.579Z,14.40
2022-10-15T21:58:49.065Z,14.40
2022-10-15T22:01:20.823Z,14.30
2022-10-15T22:03:50.055Z,14.30
2022-10-15T22:06:18.811Z,14.20
2022-10-15T22:08:47.196Z,14.20
2022-10-15T22:11:17.623Z,14.20
2022-10-15T22:13:47.447Z,14.20
2022-10-15T22:16:17.095Z,14.00
2022-10-15T22:18:46.934Z,14.00
2022-10-15T22:21:17.419Z,13.90
2022-10-15T22:23:46.200Z,13.90
2022-10-15T22:26:14.591Z,13.90
2022-10-15T22:28:42.982Z,13.90
2022-10-15T22:31:12.459Z,13.80
2022-10-15T22:33:41.618Z,13.80
2022-10-15T22:36:14.790Z,13.80
2022-10-15T22:38:44.040Z,13.70
2022-10-15T22:41:13.453Z,13.70
2022-10-15T22:43:41.553Z,13.60
2022-10-15T22:46:10.284Z,13.50
2022-10-15T22:48:40.817Z,13.50
2022-10-15T22:51:12.990Z,13.60
2022-10-15T22:53:41.990Z,13.60
2022-10-15T22:56:13.188Z,13.60
2022-10-15T22:58:41.476Z,13.60
2022-10-15T23:01:11.592Z,13.50
2022-10-15T23:03:40.592Z,13.40
2022-10-15T23:06:10.327Z,13.30
2022-10-15T23:08:38.856Z,13.30
2022-10-15T23:11:11.441Z,13.20
2022-10-15T23:13:40.192Z,13.30
2022-10-15T23:16:12.021Z,13.30
2022-10-15T23:18:41.297Z,13.20
2022-10-15T23:21:15.186Z,13.20
2022-10-15T23:23:43.892Z,13.20
2022-10-15T23:26:13.640Z,13.10
2022-10-15T23:28:42.229Z,13.10
2022-10-15T23:31:17.237Z,13.00
2022-10-15T23:33:45.308Z,13.00
2022-10-15T23:36:15.144Z,13.00
2022-10-15T23:38:43.080Z,13.00
2022-10-15T23:41:11.469Z,12.90
2022-10-15T23:43:39.430Z,12.90
2022-10-15T23:46:07.423Z,12.90
2022-10-15T23:48:35.806Z,12.80
2022-10-15T23:51:03.859Z,12.80
2022-10-15T23:53:34.103Z,12.80
2022-10-15T23:56:05.588Z,12.90
2022-10-15T23:58:35.121Z,12.80
